createdAt,value
2019-04-20T00:00:51.509Z,3.13
2019-04-20T00:03:23.705Z,3.00
2019-04-20T00:05:53.263Z,3.17
2019-04-20T00:08:27.831Z,2.90
2019-04-20T00:11:04.004Z,2.90
2019-04-20T00:13:42.030Z,3.50
2019-04-20T00:16:01.998Z,3.10
2019-04-20T00:18:41.116Z,3.43
2019-04-20T00:21:25.290Z,3.30
2019-04-20T00:24:01.095Z,3.63
2019-04-20T00:27:07.078Z,4.17
2019-04-20T00:29:25.124Z,3.30
2019-04-20T00:31:50.325Z,2.90
2019-04-20T00:34:18.331Z,3.40
2019-04-20T00:36:43.558Z,3.00
2019-04-20T00:39:16.496Z,3.50
2019-04-20T00:41:53.696Z,2.80
2019-04-20T00:44:25.114Z,2.83
2019-04-20T00:47:04.559Z,3.03
2019-04-20T00:49:42.743Z,3.10
2019-04-20T00:52:26.749Z,3.00
2019-04-20T00:54:32.471Z,2.70
2019-04-20T00:57:13.373Z,3.20
2019-04-20T00:59:59.215Z,2.70
2019-04-20T01:02:20.992Z,2.87
2019-04-20T01:04:57.941Z,3.20
2019-04-20T01:07:30.804Z,2.60
2019-04-20T01:09:58.608Z,2.90
2019-04-20T01:12:31.756Z,2.80
2019-04-20T01:15:05.897Z,3.03
2019-04-20T01:17:37.947Z,2.83
2019-04-20T01:20:08.772Z,2.77
2019-04-20T01:22:50.960Z,2.80
2019-04-20T01:25:18.335Z,2.80
2019-04-20T01:28:06.641Z,3.20
2019-04-20T01:30:30.171Z,3.27
2019-04-20T01:33:08.798Z,2.97
2019-04-20T01:35:46.129Z,3.30
2019-04-20T01:38:16.741Z,3.13
2019-04-20T01:40:31.642Z,3.20
2019-04-20T01:43:03.762Z,3.70
2019-04-20T01:45:39.158Z,3.57
2019-04-20T01:48:08.278Z,3.20
2019-04-20T01:50:49.996Z,3.50
2019-04-20T01:53:23.649Z,3.67
2019-04-20T01:56:05.389Z,3.67
2019-04-20T01:59:02.621Z,3.47
2019-04-20T02:01:40.546Z,3.50
2019-04-20T02:04:34.665Z,4.00
2019-04-20T02:07:03.269Z,4.03
2019-04-20T02:09:37.942Z,4.20
2019-04-20T02:12:12.155Z,4.20
2019-04-20T02:14:45.339Z,4.33
2019-04-20T02:17:21.371Z,4.47
2019-04-20T02:20:07.863Z,4.43
2019-04-20T02:22:34.241Z,4.23
2019-04-20T02:24:48.907Z,4.33
2019-04-20T02:27:31.350Z,4.80
2019-04-20T02:30:21.871Z,4.37
2019-04-20T02:33:11.957Z,4.27
2019-04-20T02:36:01.497Z,4.53
2019-04-20T02:39:05.692Z,3.87
2019-04-20T02:41:36.160Z,4.13
2019-04-20T02:44:04.436Z,4.63
2019-04-20T02:46:15.267Z,4.40
2019-04-20T02:49:06.050Z,4.00
2019-04-20T02:51:28.062Z,4.37
2019-04-20T02:56:32.541Z,5.20
2019-04-20T02:59:29.656Z,5.07
2019-04-20T03:01:51.768Z,4.70
2019-04-20T03:04:10.608Z,4.90
2019-04-20T03:06:53.543Z,4.00
2019-04-20T03:09:32.531Z,3.90
2019-04-20T03:12:04.835Z,5.00
2019-04-20T03:14:28.875Z,4.67
2019-04-20T03:17:09.887Z,4.07
2019-04-20T03:19:33.571Z,4.37
2019-04-20T03:22:13.821Z,4.53
2019-04-20T03:25:03.654Z,4.10
2019-04-20T03:27:19.414Z,4.93
2019-04-20T03:30:04.238Z,4.10
2019-04-20T03:33:02.865Z,4.20
2019-04-20T03:35:19.253Z,4.00
2019-04-20T03:37:48.634Z,3.77
2019-04-20T03:40:12.756Z,3.67
2019-04-20T03:42:33.045Z,4.13
2019-04-20T03:45:09.281Z,4.20
2019-04-20T03:47:49.849Z,3.90
2019-04-20T03:50:33.355Z,3.83
2019-04-20T03:53:08.717Z,4.10
2019-04-20T03:55:50.129Z,4.37
2019-04-20T03:58:47.380Z,4.13
2019-04-20T04:01:47.848Z,4.47
2019-04-20T04:04:16.915Z,4.43
2019-04-20T04:06:37.236Z,4.63
2019-04-20T04:09:14.743Z,4.30
2019-04-20T04:11:48.578Z,3.60
2019-04-20T04:14:07.517Z,4.27
2019-04-20T04:16:45.741Z,3.83
2019-04-20T04:19:19.713Z,3.93
2019-04-20T04:21:59.230Z,3.60
2019-04-20T04:24:27.143Z,3.30
2019-04-20T04:27:03.640Z,3.53
2019-04-20T04:29:43.710Z,3.97
2019-04-20T04:32:25.037Z,3.40
2019-04-20T04:34:43.246Z,3.30
2019-04-20T04:37:22.882Z,3.50
2019-04-20T04:39:54.447Z,3.60
2019-04-20T04:42:29.412Z,3.60
2019-04-20T04:44:48.532Z,3.40
2019-04-20T04:47:13.456Z,3.73
2019-04-20T04:49:48.435Z,3.97
2019-04-20T04:52:22.893Z,3.70
2019-04-20T04:54:58.981Z,4.10
2019-04-20T04:57:20.403Z,3.63
2019-04-20T04:59:51.172Z,3.80
2019-04-20T05:02:29.765Z,3.50
2019-04-20T05:05:41.354Z,3.83
2019-04-20T05:08:05.780Z,3.43
2019-04-20T05:10:30.766Z,3.50
2019-04-20T05:13:02.874Z,3.60
2019-04-20T05:15:48.450Z,3.80
2019-04-20T05:18:39.452Z,3.97
2019-04-20T05:21:01.618Z,4.30
2019-04-20T05:23:38.804Z,4.53
2019-04-20T05:26:44.989Z,4.10
2019-04-20T05:29:06.643Z,3.50
2019-04-20T05:31:39.692Z,4.10
2019-04-20T05:34:25.672Z,3.70
2019-04-20T05:37:13.645Z,3.43
2019-04-20T05:39:36.845Z,3.60
2019-04-20T05:41:58.214Z,3.87
2019-04-20T05:44:42.790Z,3.77
2019-04-20T05:47:13.565Z,3.80
2019-04-20T05:49:43.997Z,4.13
2019-04-20T05:52:31.588Z,3.77
2019-04-20T05:54:51.251Z,3.50
2019-04-20T05:57:27.015Z,3.50
2019-04-20T05:59:59.434Z,3.30
2019-04-20T06:02:30.614Z,3.83
2019-04-20T06:07:32.190Z,3.40
2019-04-20T06:10:08.810Z,4.10
2019-04-20T06:12:38.100Z,3.60
2019-04-20T06:15:21.087Z,3.97
2019-04-20T06:18:02.461Z,3.40
2019-04-20T06:20:43.865Z,3.93
2019-04-20T06:23:33.324Z,3.40
2019-04-20T06:26:20.563Z,4.17
2019-04-20T06:28:33.800Z,3.97
2019-04-20T06:31:10.610Z,3.40
2019-04-20T06:34:27.657Z,4.23
2019-04-20T06:39:27.020Z,3.87
2019-04-20T06:42:06.967Z,3.93
2019-04-20T06:44:32.252Z,3.40
2019-04-20T06:47:16.384Z,3.43
2019-04-20T06:49:33.425Z,3.33
2019-04-20T06:52:32.398Z,3.57
2019-04-20T06:55:06.961Z,3.37
2019-04-20T06:57:45.080Z,3.67
2019-04-20T07:00:15.735Z,3.37
2019-04-20T07:03:05.803Z,3.43
2019-04-20T07:05:22.107Z,3.77
2019-04-20T07:08:04.273Z,3.40
2019-04-20T07:10:31.371Z,3.60
2019-04-20T07:12:55.402Z,3.90
2019-04-20T07:15:36.388Z,3.80
2019-04-20T07:18:19.395Z,3.60
2019-04-20T07:21:00.150Z,3.80
2019-04-20T07:23:55.886Z,3.47
2019-04-20T07:26:12.848Z,3.90
2019-04-20T07:28:45.146Z,3.80
2019-04-20T07:31:07.065Z,3.93
2019-04-20T07:33:49.528Z,4.10
2019-04-20T07:36:20.071Z,3.70
2019-04-20T07:39:04.231Z,4.07
2019-04-20T07:41:33.124Z,3.80
2019-04-20T07:44:04.727Z,3.83
2019-04-20T07:46:41.167Z,3.50
2019-04-20T07:49:03.120Z,4.03
2019-04-20T07:51:21.317Z,3.40
2019-04-20T07:54:14.795Z,3.67
2019-04-20T07:56:42.537Z,4.23
2019-04-20T07:58:55.238Z,3.67
2019-04-20T08:02:20.167Z,3.90
2019-04-20T08:04:52.404Z,3.60
2019-04-20T08:07:09.208Z,3.70
2019-04-20T08:09:49.011Z,3.40
2019-04-20T08:12:51.626Z,3.20
2019-04-20T08:15:26.738Z,3.60
2019-04-20T08:17:51.259Z,3.17
2019-04-20T08:20:20.470Z,3.43
2019-04-20T08:22:53.499Z,3.40
2019-04-20T08:25:16.272Z,3.57
2019-04-20T08:28:06.370Z,3.20
2019-04-20T08:31:08.889Z,3.33
2019-04-20T08:33:55.005Z,3.47
2019-04-20T08:36:23.444Z,3.50
2019-04-20T08:39:13.645Z,3.50
2019-04-20T08:41:16.927Z,3.60
2019-04-20T08:46:29.904Z,3.03
2019-04-20T08:49:03.325Z,3.87
2019-04-20T08:51:44.972Z,3.33
2019-04-20T08:54:11.206Z,3.00
2019-04-20T08:56:31.932Z,3.30
2019-04-20T08:58:52.833Z,3.53
2019-04-20T09:01:27.182Z,3.43
2019-04-20T09:04:06.638Z,3.63
2019-04-20T09:06:45.684Z,3.23
2019-04-20T09:09:37.793Z,3.30
2019-04-20T09:12:05.250Z,3.57
2019-04-20T09:14:21.717Z,3.47
2019-04-20T09:17:22.401Z,3.80
2019-04-20T09:19:51.205Z,3.73
2019-04-20T09:22:46.916Z,3.33
2019-04-20T09:28:15.027Z,3.10
2019-04-20T09:30:45.272Z,3.87
2019-04-20T09:33:43.672Z,3.57
2019-04-20T09:36:15.299Z,4.03
2019-04-20T09:39:00.057Z,4.07
2019-04-20T09:41:57.808Z,3.90
2019-04-20T09:44:03.006Z,3.73
2019-04-20T09:46:40.017Z,4.13
2019-04-20T09:49:15.733Z,4.10
2019-04-20T09:51:55.064Z,4.47
2019-04-20T09:54:31.080Z,4.45
2019-04-20T09:57:03.239Z,4.87
2019-04-20T09:59:33.682Z,3.90
2019-04-20T10:01:55.659Z,4.67
2019-04-20T10:04:21.612Z,4.58
2019-04-20T10:06:52.809Z,4.40
2019-04-20T10:09:27.994Z,5.10
2019-04-20T10:11:57.452Z,5.42
2019-04-20T10:14:28.978Z,5.00
2019-04-20T10:17:00.182Z,5.15
2019-04-20T10:19:34.063Z,4.60
2019-04-20T10:22:04.675Z,5.60
2019-04-20T10:24:36.645Z,5.55
2019-04-20T10:27:08.354Z,5.72
2019-04-20T10:29:39.735Z,5.47
2019-04-20T10:32:14.539Z,5.50
2019-04-20T10:34:44.288Z,5.10
2019-04-20T10:37:19.728Z,6.00
2019-04-20T10:39:52.319Z,6.47
2019-04-20T10:42:25.953Z,6.15
2019-04-20T10:44:58.940Z,6.12
2019-04-20T10:47:29.818Z,5.90
2019-04-20T10:50:00.846Z,7.30
2019-04-20T10:52:31.979Z,7.08
2019-04-20T10:55:02.923Z,7.00
2019-04-20T10:57:35.336Z,7.20
2019-04-20T11:00:07.974Z,7.15
2019-04-20T11:02:39.642Z,7.40
2019-04-20T11:05:12.814Z,7.12
2019-04-20T11:07:44.342Z,7.00
2019-04-20T11:10:21.701Z,7.08
2019-04-20T11:12:50.544Z,6.80
2019-04-20T11:15:21.409Z,7.37
2019-04-20T11:17:53.295Z,7.75
2019-04-20T11:20:25.466Z,8.18
2019-04-20T11:22:58.033Z,8.10
2019-04-20T11:25:30.262Z,8.08
2019-04-20T11:28:01.835Z,7.78
2019-04-20T11:30:32.332Z,7.70
2019-04-20T11:33:04.304Z,7.53
2019-04-20T11:35:39.276Z,7.80
2019-04-20T11:38:10.706Z,7.67
2019-04-20T11:40:41.179Z,7.55
2019-04-20T11:43:13.599Z,8.40
2019-04-20T11:45:44.731Z,6.80
2019-04-20T11:48:15.833Z,7.22
2019-04-20T11:50:47.556Z,7.10
2019-04-20T11:53:19.303Z,6.78
2019-04-20T11:55:50.115Z,6.97
2019-04-20T11:58:21.772Z,6.42
2019-04-20T12:01:01.243Z,6.30
2019-04-20T12:03:35.401Z,5.67
2019-04-20T12:06:01.654Z,5.90
2019-04-20T12:08:35.416Z,6.55
2019-04-20T12:11:21.366Z,6.00
2019-04-20T12:13:38.639Z,6.17
2019-04-20T12:16:09.899Z,5.85
2019-04-20T12:18:41.909Z,6.20
2019-04-20T12:21:12.874Z,6.55
2019-04-20T12:23:44.518Z,5.75
2019-04-20T12:26:16.008Z,6.03
2019-04-20T12:28:47.564Z,6.20
2019-04-20T12:31:22.790Z,5.97
2019-04-20T12:33:52.600Z,6.53
2019-04-20T12:36:23.929Z,6.20
2019-04-20T12:38:55.046Z,7.47
2019-04-20T12:41:37.451Z,6.85
2019-04-20T12:44:00.052Z,6.78
2019-04-20T12:46:31.926Z,7.03
2019-04-20T12:49:03.222Z,6.40
2019-04-20T12:51:43.676Z,6.65
2019-04-20T12:54:07.098Z,6.40
2019-04-20T12:56:38.350Z,6.58
2019-04-20T12:59:09.683Z,6.20
2019-04-20T13:01:41.446Z,6.30
2019-04-20T13:04:12.204Z,6.75
2019-04-20T13:06:44.658Z,5.97
2019-04-20T13:09:16.740Z,6.10
2019-04-20T13:12:01.095Z,6.37
2019-04-20T13:14:54.558Z,6.12
2019-04-20T13:17:26.233Z,6.63
2019-04-20T13:19:57.470Z,5.73
2019-04-20T13:22:28.683Z,5.77
2019-04-20T13:24:59.499Z,5.60
2019-04-20T13:27:31.153Z,6.63
2019-04-20T13:30:03.236Z,5.80
2019-04-20T13:32:36.093Z,5.73
2019-04-20T13:35:07.994Z,5.30
2019-04-20T13:37:40.451Z,5.30
2019-04-20T13:40:11.586Z,5.23
2019-04-20T13:42:45.432Z,5.27
2019-04-20T13:45:17.043Z,5.40
2019-04-20T13:47:48.697Z,5.40
2019-04-20T13:50:22.022Z,4.97
2019-04-20T13:52:54.686Z,5.07
2019-04-20T13:55:27.290Z,5.50
2019-04-20T13:58:09.673Z,5.20
2019-04-20T14:01:05.121Z,4.87
2019-04-20T14:03:36.787Z,5.00
2019-04-20T14:06:08.857Z,4.90
2019-04-20T14:08:41.293Z,5.30
2019-04-20T14:11:13.240Z,5.30
2019-04-20T14:13:52.918Z,5.60
2019-04-20T14:16:16.815Z,5.00
2019-04-20T14:18:49.120Z,5.23
2019-04-20T14:21:20.419Z,5.07
2019-04-20T14:23:53.042Z,5.57
2019-04-20T14:26:25.108Z,5.20
2019-04-20T14:28:56.740Z,4.53
2019-04-20T14:31:27.934Z,5.07
2019-04-20T14:33:59.141Z,4.73
2019-04-20T14:36:30.793Z,4.70
2019-04-20T14:39:02.430Z,4.97
2019-04-20T14:41:36.058Z,5.20
2019-04-20T14:44:07.938Z,5.20
2019-04-20T14:46:39.963Z,4.57
2019-04-20T14:49:10.978Z,5.00
2019-04-20T14:51:41.653Z,4.77
2019-04-20T14:54:13.759Z,5.17
2019-04-20T14:56:45.388Z,4.50
2019-04-20T14:59:38.226Z,4.50
2019-04-20T15:02:21.777Z,4.53
2019-04-20T15:04:52.826Z,4.60
2019-04-20T15:07:24.655Z,4.50
2019-04-20T15:09:57.031Z,4.87
2019-04-20T15:12:38.855Z,4.73
2019-04-20T15:15:00.768Z,4.23
2019-04-20T15:17:53.569Z,4.40
2019-04-20T15:20:37.449Z,4.13
2019-04-20T15:23:19.397Z,4.37
2019-04-20T15:25:50.684Z,4.77
2019-04-20T15:28:22.098Z,4.50
2019-04-20T15:30:54.164Z,4.80
2019-04-20T15:33:25.233Z,4.47
2019-04-20T15:35:55.922Z,4.23
2019-04-20T15:38:29.139Z,4.50
2019-04-20T15:41:00.212Z,4.60
2019-04-20T15:43:31.287Z,3.90
2019-04-20T15:46:03.408Z,4.30
2019-04-20T15:48:34.419Z,4.57
2019-04-20T15:51:05.926Z,4.50
2019-04-20T15:53:37.675Z,4.47
2019-04-20T15:56:11.567Z,4.40
2019-04-20T15:58:41.176Z,3.87
2019-04-20T16:01:14.259Z,4.23
2019-04-20T16:03:55.365Z,4.13
2019-04-20T16:06:27.483Z,4.17
2019-04-20T16:09:00.063Z,4.07
2019-04-20T16:11:31.256Z,4.20
2019-04-20T16:14:03.582Z,4.27
2019-04-20T16:16:34.779Z,4.07
2019-04-20T16:19:11.954Z,3.87
2019-04-20T16:21:41.662Z,4.47
2019-04-20T16:24:18.969Z,4.17
2019-04-20T16:27:11.923Z,4.00
2019-04-20T16:29:44.508Z,4.10
2019-04-20T16:32:16.533Z,4.30
2019-04-20T16:34:48.619Z,4.53
2019-04-20T16:37:20.176Z,3.90
2019-04-20T16:39:52.461Z,4.07
2019-04-20T16:42:24.415Z,4.33
2019-04-20T16:44:56.969Z,4.27
2019-04-20T16:47:28.098Z,4.70
2019-04-20T16:49:59.129Z,3.80
2019-04-20T16:52:30.726Z,4.63
2019-04-20T16:55:02.155Z,4.47
2019-04-20T16:57:34.381Z,4.30
2019-04-20T17:00:05.653Z,4.20
2019-04-20T17:02:38.244Z,4.17
2019-04-20T17:05:09.578Z,4.30
2019-04-20T17:07:44.760Z,4.03
2019-04-20T17:10:20.082Z,4.30
2019-04-20T17:12:51.544Z,4.50
2019-04-20T17:15:23.480Z,4.43
2019-04-20T17:17:56.720Z,4.53
2019-04-20T17:20:28.745Z,4.00
2019-04-20T17:23:00.686Z,4.70
2019-04-20T17:25:32.452Z,4.10
2019-04-20T17:28:38.656Z,4.50
2019-04-20T17:31:45.162Z,4.37
2019-04-20T17:34:39.829Z,4.27
2019-04-20T17:36:50.663Z,4.57
2019-04-20T17:39:31.121Z,4.40
2019-04-20T17:42:12.818Z,4.23
2019-04-20T17:44:41.238Z,4.70
2019-04-20T17:47:21.583Z,4.90
2019-04-20T17:49:51.741Z,4.43
2019-04-20T17:52:29.188Z,4.30
2019-04-20T17:54:51.573Z,4.00
2019-04-20T17:57:23.384Z,4.10
2019-04-20T18:00:07.055Z,3.50
2019-04-20T18:03:00.642Z,4.00
2019-04-20T18:05:58.347Z,4.07
2019-04-20T18:08:29.922Z,4.40
2019-04-20T18:10:53.123Z,4.10
2019-04-20T18:13:21.778Z,4.17
2019-04-20T18:16:10.079Z,3.83
2019-04-20T18:18:50.390Z,4.07
2019-04-20T18:21:28.803Z,4.10
2019-04-20T18:24:00.432Z,3.90
2019-04-20T18:26:49.146Z,4.00
2019-04-20T18:29:30.829Z,3.90
2019-04-20T18:32:01.866Z,3.90
2019-04-20T18:34:50.644Z,3.67
2019-04-20T18:37:19.629Z,3.80
2019-04-20T18:39:57.447Z,3.83
2019-04-20T18:42:30.073Z,3.90
2019-04-20T18:45:17.989Z,3.77
2019-04-20T18:47:45.658Z,4.50
2019-04-20T18:50:09.422Z,4.27
2019-04-20T18:52:31.719Z,3.70
2019-04-20T18:55:06.326Z,4.20
2019-04-20T18:57:38.319Z,4.10
2019-04-20T19:00:18.330Z,3.60
2019-04-20T19:02:48.895Z,4.20
2019-04-20T19:05:17.791Z,3.90
2019-04-20T19:07:58.801Z,4.10
2019-04-20T19:10:27.206Z,4.23
2019-04-20T19:13:01.615Z,3.60
2019-04-20T19:16:03.724Z,3.70
2019-04-20T19:18:52.140Z,3.80
2019-04-20T19:21:06.931Z,4.17
2019-04-20T19:23:48.637Z,3.80
2019-04-20T19:26:19.118Z,3.93
2019-04-20T19:28:52.529Z,4.10
2019-04-20T19:31:36.822Z,4.00
2019-04-20T19:34:16.729Z,4.00
2019-04-20T19:36:31.828Z,3.53
2019-04-20T19:39:12.150Z,4.10
2019-04-20T19:41:38.951Z,3.93
2019-04-20T19:44:15.240Z,3.77
2019-04-20T19:46:55.198Z,4.10
2019-04-20T19:49:19.611Z,3.67
2019-04-20T19:52:02.864Z,3.57
2019-04-20T19:54:29.962Z,3.67
2019-04-20T19:56:58.704Z,3.80
2019-04-20T19:59:23.456Z,4.30
2019-04-20T20:01:47.727Z,4.37
2019-04-20T20:04:19.668Z,4.03
2019-04-20T20:06:57.494Z,3.53
2019-04-20T20:09:23.867Z,3.90
2019-04-20T20:11:56.155Z,3.50
2019-04-20T20:14:34.334Z,4.30
2019-04-20T20:17:19.581Z,3.83
2019-04-20T20:20:02.739Z,3.80
2019-04-20T20:22:17.214Z,3.50
2019-04-20T20:24:37.255Z,3.50
2019-04-20T20:27:21.690Z,3.60
2019-04-20T20:29:47.202Z,3.90
2019-04-20T20:32:22.905Z,4.20
2019-04-20T20:34:56.018Z,3.93
2019-04-20T20:37:29.616Z,3.70
2019-04-20T20:40:02.137Z,4.27
2019-04-20T20:42:33.601Z,4.00
2019-04-20T20:45:09.184Z,4.03
2019-04-20T20:47:48.484Z,4.00
2019-04-20T20:50:28.440Z,3.93
2019-04-20T20:52:49.628Z,4.23
2019-04-20T20:55:24.670Z,4.17
2019-04-20T20:57:55.704Z,3.90
2019-04-20T21:00:28.244Z,4.00
2019-04-20T21:02:59.279Z,3.73
2019-04-20T21:05:23.936Z,4.30
2019-04-20T21:07:55.443Z,3.97
2019-04-20T21:10:31.939Z,4.07
2019-04-20T21:13:03.032Z,3.87
2019-04-20T21:15:31.603Z,3.53
2019-04-20T21:18:29.019Z,4.60
2019-04-20T21:20:55.127Z,4.30
2019-04-20T21:23:23.891Z,4.10
2019-04-20T21:25:59.311Z,3.97
2019-04-20T21:28:31.071Z,4.00
2019-04-20T21:31:08.067Z,3.87
2019-04-20T21:33:36.761Z,3.60
2019-04-20T21:36:09.103Z,3.80
2019-04-20T21:38:42.498Z,4.00
2019-04-20T21:41:16.528Z,3.80
2019-04-20T21:43:46.436Z,3.93
2019-04-20T21:46:18.621Z,3.60
2019-04-20T21:49:04.300Z,4.27
2019-04-20T21:51:33.352Z,4.23
2019-04-20T21:53:56.949Z,3.97
2019-04-20T21:56:28.080Z,3.77
2019-04-20T21:59:02.493Z,3.97
2019-04-20T22:01:38.942Z,3.87
2019-04-20T22:04:06.046Z,4.00
2019-04-20T22:06:36.603Z,3.90
2019-04-20T22:09:12.676Z,3.80
2019-04-20T22:11:45.581Z,4.00
2019-04-20T22:14:19.500Z,3.70
2019-04-20T22:16:51.645Z,3.90
2019-04-20T22:19:30.666Z,3.67
2019-04-20T22:22:05.610Z,3.90
2019-04-20T22:24:41.975Z,3.90
2019-04-20T22:27:07.547Z,4.37
2019-04-20T22:29:32.298Z,4.20
2019-04-20T22:32:09.008Z,4.50
2019-04-20T22:34:35.488Z,3.97
2019-04-20T22:37:08.532Z,4.10
2019-04-20T22:39:47.670Z,4.67
2019-04-20T22:42:16.852Z,4.13
2019-04-20T22:44:56.642Z,3.87
2019-04-20T22:47:25.463Z,4.13
2019-04-20T22:50:14.054Z,4.00
2019-04-20T22:52:41.067Z,4.10
2019-04-20T22:55:19.830Z,3.93
2019-04-20T22:57:44.478Z,3.70
2019-04-20T23:00:08.358Z,3.73
2019-04-20T23:02:36.746Z,3.90
2019-04-20T23:05:08.914Z,4.13
2019-04-20T23:07:41.005Z,3.90
2019-04-20T23:10:11.533Z,4.30
2019-04-20T23:12:46.943Z,4.33
2019-04-20T23:15:16.249Z,4.10
2019-04-20T23:17:50.314Z,4.33
2019-04-20T23:20:25.221Z,4.10
2019-04-20T23:22:53.041Z,3.70
2019-04-20T23:25:25.113Z,3.60
2019-04-20T23:28:00.289Z,3.87
2019-04-20T23:30:33.480Z,4.00
2019-04-20T23:33:02.138Z,3.83
2019-04-20T23:35:36.792Z,4.13
2019-04-20T23:38:10.985Z,4.23
2019-04-20T23:40:37.830Z,4.10
2019-04-20T23:43:20.198Z,4.00
2019-04-20T23:46:09.269Z,4.57
2019-04-20T23:48:56.249Z,3.83
2019-04-20T23:51:52.486Z,4.10
2019-04-20T23:54:10.414Z,4.73
2019-04-20T23:56:32.546Z,4.40
2019-04-20T23:59:04.443Z,4.10
